Aérodrome :
LOGIN :

S'inscrire | Disclaimer

   EN    FR    IT 

 










Légende :    VFR   VFR Marginal   IFR   IFR Intensif   IFR Très Intensif
Visi : 
Plafond : 
>= 8 km
>= 3000ft
5 à 8 km
1000 à 3000 ft
1500m à 5 km
500 à 1000 ft
800 à 1500m
200 à 500 ft
< 800m
< 200 ft
Symboles :   Orages  Brouillard  Fortes neiges  Fortes précipitations  Vent > 20 kt
SIGMETs :   Divers  Orages  Givrage  Turbulence  Onde Orograph.  Cendres Volcan.







- Altitude de l'aérodrome : 751 ft
- Code IATA : ENC
- Voir les cartes d'approche


LFSN - Nancy Essey

DERNIER METAR :
  • 121730Z AUTO 21005KT 170V230 9999 FEW028 BKN039 OVC054 03/00 Q1015

METARs EXPIRÉS :
  • 121700Z AUTO 21003KT 160V240 9999 FEW038 BKN068 OVC078 03/00 Q1015
  • 121630Z AUTO VRB03KT 9999 FEW024/// BKN036/// OVC052/// ///TCU 03/00 Q1015
  • 121600Z AUTO VRB02KT 9999 BKN036 BKN049 OVC062 02/01 Q1015
  • 121530Z AUTO VRB02KT 9999 FEW014 SCT035 BKN042 02/01 Q1014
  • 121500Z AUTO 22009G22KT 180V250 9999 -RA FEW016 SCT031 BKN040 04/M00 Q1014

Prévision TAF périmée.
Pas de NOTAMs connus pour ce terrain.



MET'MAP, la Météo Aéronautique d'un coup d'oeil ! - Copyright ORBIFLY Décembre 2007 - Disclaimer

ORBIFLY MET'MAP TEAM :

Programmation & Développement : Alexandra Zaïnal
Conception & Développement : Baudouin d'Aumeries
Co-Programmation & Développement : Marc-Olivier Méhu
Soutien technique & logistique : Manuel Goepfert

Contact : metmap@orbifly.com




SOURCES & CREDITS :

   NOAA